This is the latest recevied weather packets stored in our database for station/object OM3WYM-13. If no packets are shown the sender has not sent any weather packets the latest 10 day(s).
| Time | Temp. | Humidity | Pressure | Rain* | Wind** | Luminosity | Snow |
|---|---|---|---|---|---|---|---|
| 1778049008 | 18.33° C | 44% | 1010.1 hPa | - | - | - | - |
| 1778048408 | 17.22° C | 46% | 1010.1 hPa | - | - | - | - |
| 1778047808 | 16.67° C | 47% | 1010.2 hPa | - | - | - | - |
| 1778047210 | 16.11° C | 48% | 1010.3 hPa | - | - | - | - |
| 1778046608 | 15.56° C | 49% | 1010.3 hPa | - | - | - | - |
| 1778046008 | 15° C | 50% | 1010.2 hPa | - | - | - | - |
| 1778045408 | 13.89° C | 53% | 1010.4 hPa | - | - | - | - |
| 1778044808 | 12.22° C | 60% | 1010.5 hPa | - | - | - | - |
| 1778044208 | 10.56° C | 66% | 1010.8 hPa | - | - | - | - |
| 1778043608 | 10° C | 68% | 1011 hPa | - | - | - | - |
| 1778043008 | 8.89° C | 69% | 1011.1 hPa | - | - | - | - |
| 1778042408 | 8.33° C | 72% | 1011.3 hPa | - | - | - | - |
| 1778041808 | 7.78° C | 75% | 1011.4 hPa | - | - | - | - |
| 1778041208 | 7.22° C | 75% | 1011.4 hPa | - | - | - | - |
| 1778040608 | 7.22° C | 74% | 1011.5 hPa | - | - | - | - |
| 1778040008 | 7.22° C | 74% | 1011.5 hPa | - | - | - | - |
| 1778039408 | 7.22° C | 74% | 1011.4 hPa | - | - | - | - |
| 1778038808 | 7.78° C | 72% | 1011.5 hPa | - | - | - | - |
| 1778038208 | 7.78° C | 71% | 1011.5 hPa | - | - | - | - |
| 1778037608 | 7.78° C | 70% | 1011.4 hPa | - | - | - | - |
| 1778037008 | 8.33° C | 69% | 1011.4 hPa | - | - | - | - |
| 1778036408 | 8.33° C | 68% | 1011.4 hPa | - | - | - | - |
| 1778035810 | 8.33° C | 67% | 1011.3 hPa | - | - | - | - |
| 1778035208 | 8.89° C | 65% | 1011.2 hPa | - | - | - | - |
| 1778034008 | 9.44° C | 63% | 1010.9 hPa | - | - | - | - |
* Rain since midnight (hover to see other rain measurements)
** Current wind speed in m/s (hover to see current wind gust speed)